Time;durP1;ratioP1;P1;durP2;ratioP2;P2;SDS_P1;SDS_P2;PMS_P1;PMS_P2;Temp;Humidity;BMP_temperature;BMP_pressure;BME280_temperature;BME280_humidity;BME280_pressure;Samples;Min_cycle;Max_cycle;Signal;HPM_P1;HPM_P2
2021/05/02 00:03:44;;;;;;;22.98;17.05;;;9.50;93.80;;;;;;5900697;39;20139;-71
2021/05/02 00:07:54;;;;;;;22.77;16.98;;;8.50;93.30;;;;;;5908067;39;20057;-71
2021/05/02 00:11:59;;;;;;;22.20;16.40;;;8.40;93.30;;;;;;5913679;39;20053;-71
2021/05/02 00:16:09;;;;;;;23.85;16.80;;;8.40;93.50;;;;;;5912858;39;20072;-72
2021/05/02 00:20:15;;;;;;;21.73;16.13;;;8.40;93.50;;;;;;5899893;40;24652;-72
2021/05/02 00:24:22;;;;;;;24.80;17.67;;;8.40;93.40;;;;;;5910373;39;20146;-73
2021/05/02 00:28:28;;;;;;;22.50;16.60;;;8.50;93.40;;;;;;5910959;39;20126;-73
2021/05/02 00:32:36;;;;;;;26.35;17.00;;;8.40;93.40;;;;;;5908853;39;20053;-73
2021/05/02 00:36:44;;;;;;;25.58;16.58;;;8.40;93.40;;;;;;5908361;39;20045;-75
2021/05/02 00:40:57;;;;;;;21.02;16.15;;;8.90;93.50;;;;;;5912912;39;20048;-75
2021/05/02 00:45:07;;;;;;;25.95;17.90;;;8.50;93.50;;;;;;5913731;39;20409;-74
2021/05/02 00:49:12;;;;;;;24.50;16.83;;;8.50;93.30;;;;;;5912114;40;20147;-78
2021/05/02 00:53:45;;;;;;;22.63;17.38;;;8.50;93.30;;;;;;5909856;39;20432;-76
2021/05/02 00:58:03;;;;;;;25.85;17.20;;;8.50;93.20;;;;;;5906700;39;20164;-76
2021/05/02 01:02:13;;;;;;;25.80;16.20;;;8.50;93.30;;;;;;5910915;39;20466;-74
2021/05/02 01:06:23;;;;;;;24.08;16.40;;;8.50;93.40;;;;;;5915016;39;20328;-72
2021/05/02 01:10:28;;;;;;;22.40;15.73;;;8.50;93.50;;;;;;5912095;39;20069;-72
2021/05/02 01:14:39;;;;;;;23.25;16.02;;;8.50;93.30;;;;;;5909838;39;20096;-76
2021/05/02 01:18:44;;;;;;;20.40;15.70;;;8.60;93.30;;;;;;5913413;39;20065;-76
2021/05/02 01:22:52;;;;;;;22.65;16.30;;;8.50;93.10;;;;;;5910745;39;20045;-75
2021/05/02 01:26:56;;;;;;;22.92;15.73;;;8.50;93.20;;;;;;5914743;40;20057;-75
2021/05/02 01:31:00;;;;;;;22.90;15.50;;;8.50;93.30;;;;;;5910879;40;20056;-74
2021/05/02 01:35:06;;;;;;;23.77;16.05;;;8.50;93.20;;;;;;5913422;39;20053;-74
2021/05/02 01:39:09;;;;;;;20.58;16.10;;;8.50;93.20;;;;;;5911259;39;20044;-73
2021/05/02 01:43:13;;;;;;;24.67;17.80;;;8.40;93.20;;;;;;5912652;40;20394;-76
2021/05/02 01:47:20;;;;;;;22.13;16.50;;;8.40;93.30;;;;;;5914609;39;20072;-74
2021/05/02 01:51:26;;;;;;;24.27;17.98;;;8.40;93.30;;;;;;5910663;39;20067;-74
2021/05/02 01:55:31;;;;;;;23.80;17.10;;;8.40;93.30;;;;;;5910870;39;20142;-74
2021/05/02 01:59:41;;;;;;;21.75;16.40;;;8.40;93.30;;;;;;5907516;39;20049;-75
2021/05/02 02:03:48;;;;;;;23.73;16.88;;;8.40;93.50;;;;;;5914795;40;20370;-74
2021/05/02 02:07:59;;;;;;;25.80;17.75;;;8.40;93.40;;;;;;5920866;39;20072;-74
2021/05/02 02:12:04;;;;;;;27.10;18.27;;;8.30;93.40;;;;;;5914132;40;20072;-74
2021/05/02 02:16:10;;;;;;;24.08;17.67;;;8.30;93.50;;;;;;5912489;40;20060;-74
2021/05/02 02:20:17;;;;;;;26.52;19.00;;;8.30;93.50;;;;;;5910677;39;20076;-74
2021/05/02 02:24:43;;;;;;;27.63;19.02;;;8.30;93.40;;;;;;5916152;39;20072;-74
2021/05/02 02:28:51;;;;;;;24.38;18.13;;;8.20;93.40;;;;;;5913604;39;20207;-73
2021/05/02 02:33:02;;;;;;;30.48;20.05;;;7.80;93.60;;;;;;5910616;39;20563;-72
2021/05/02 02:37:12;;;;;;;24.05;17.70;;;8.00;93.60;;;;;;5912501;39;20113;-73
2021/05/02 02:41:18;;;;;;;26.15;17.30;;;8.00;93.70;;;;;;5910259;39;20061;-72
2021/05/02 02:45:24;;;;;;;28.77;17.63;;;8.00;94.30;;;;;;5914072;39;20048;-72
2021/05/02 02:49:33;;;;;;;24.42;16.50;;;8.00;94.30;;;;;;5908998;40;20153;-73
2021/05/02 02:53:38;;;;;;;23.48;17.25;;;8.00;94.20;;;;;;5910225;39;20061;-73
2021/05/02 02:57:51;;;;;;;27.80;17.63;;;8.00;93.80;;;;;;5913124;39;20060;-72
2021/05/02 03:01:56;;;;;;;26.05;17.30;;;8.00;93.70;;;;;;5908608;39;20052;-71
2021/05/02 03:06:02;;;;;;;26.38;17.60;;;8.00;93.70;;;;;;5912182;40;20047;-73
2021/05/02 03:10:08;;;;;;;27.83;16.90;;;7.90;93.90;;;;;;5912526;39;20237;-72
2021/05/02 03:14:13;;;;;;;20.13;14.80;;;7.90;94.00;;;;;;5907248;39;20605;-71
2021/05/02 03:18:23;;;;;;;24.35;16.55;;;7.80;94.40;;;;;;5911060;39;20068;-73
2021/05/02 03:22:38;;;;;;;27.52;16.98;;;7.90;94.20;;;;;;5910034;39;20049;-76
2021/05/02 03:26:43;;;;;;;24.35;17.63;;;7.80;94.20;;;;;;5911718;40;20049;-73
2021/05/02 03:30:50;;;;;;;26.20;17.70;;;7.80;93.90;;;;;;5910236;40;20522;-73
2021/05/02 03:34:58;;;;;;;26.85;18.35;;;7.80;93.70;;;;;;5909755;39;20114;-73
2021/05/02 03:39:09;;;;;;;29.60;20.60;;;7.80;93.80;;;;;;5909393;39;20060;-73
2021/05/02 03:43:18;;;;;;;31.85;20.00;;;7.80;93.90;;;;;;5911279;39;20089;-73
2021/05/02 03:47:22;;;;;;;29.02;19.45;;;7.80;93.90;;;;;;5914153;39;20045;-73
2021/05/02 03:51:30;;;;;;;33.33;20.55;;;7.80;93.90;;;;;;5911964;40;20051;-73
2021/05/02 03:55:41;;;;;;;31.15;20.80;;;7.90;93.90;;;;;;5911451;40;20130;-73
2021/05/02 03:59:46;;;;;;;30.65;20.65;;;7.80;94.00;;;;;;5909883;40;20162;-73
2021/05/02 04:03:50;;;;;;;32.33;21.63;;;7.80;93.90;;;;;;5910765;40;20110;-73
2021/05/02 04:07:57;;;;;;;35.50;22.85;;;7.80;94.00;;;;;;5910424;39;20056;-73
2021/05/02 04:12:04;;;;;;;32.58;21.98;;;7.90;94.10;;;;;;5911464;39;20049;-74
2021/05/02 04:16:10;;;;;;;31.98;22.33;;;7.90;94.10;;;;;;5911833;40;20056;-74
2021/05/02 04:20:14;;;;;;;30.92;22.00;;;7.90;94.10;;;;;;5916125;39;20732;-75
2021/05/02 04:24:19;;;;;;;33.03;23.42;;;8.00;94.10;;;;;;5910314;40;20392;-75
2021/05/02 04:28:23;;;;;;;33.00;23.10;;;8.00;94.10;;;;;;5910071;40;20049;-74
2021/05/02 04:32:27;;;;;;;31.48;22.83;;;8.00;94.10;;;;;;5902572;39;20328;-74
2021/05/02 04:36:34;;;;;;;32.85;23.25;;;8.70;94.30;;;;;;5910188;39;20142;-73
2021/05/02 04:40:38;;;;;;;34.22;24.10;;;8.00;94.10;;;;;;5913088;39;20372;-74
2021/05/02 04:44:43;;;;;;;34.30;24.45;;;8.10;94.10;;;;;;5903337;39;20307;-73
2021/05/02 04:48:50;;;;;;;37.75;24.25;;;8.10;94.10;;;;;;5911319;40;20492;-73
2021/05/02 04:53:02;;;;;;;33.20;24.33;;;8.10;94.20;;;;;;5908947;39;20061;-72
2021/05/02 04:57:06;;;;;;;35.28;23.90;;;8.10;94.20;;;;;;5908701;39;20582;-72
2021/05/02 05:01:13;;;;;;;33.60;24.15;;;8.20;94.20;;;;;;5900522;39;20056;-71
2021/05/02 05:05:19;;;;;;;31.98;23.77;;;8.20;94.20;;;;;;5915733;39;20064;-74
2021/05/02 05:09:29;;;;;;;32.58;24.33;;;8.20;94.30;;;;;;5910799;40;20040;-74
2021/05/02 05:13:34;;;;;;;35.15;24.65;;;8.20;94.20;;;;;;5908074;40;20040;-71
2021/05/02 05:17:40;;;;;;;33.97;24.05;;;8.30;94.30;;;;;;5905430;39;20056;-69
2021/05/02 05:21:45;;;;;;;36.72;26.73;;;8.30;94.30;;;;;;5896754;40;20549;-69
2021/05/02 05:25:49;;;;;;;35.42;25.70;;;8.40;94.30;;;;;;5905123;40;20053;-69
2021/05/02 05:29:56;;;;;;;35.47;25.20;;;8.50;94.30;;;;;;5907983;39;20442;-69
2021/05/02 05:34:03;;;;;;;35.28;26.75;;;8.70;94.10;;;;;;5906036;40;20049;-67
2021/05/02 05:38:08;;;;;;;33.67;25.58;;;8.80;94.00;;;;;;5895881;39;20388;-68
2021/05/02 05:42:12;;;;;;;36.03;27.23;;;8.80;93.90;;;;;;5899469;40;20635;-69
2021/05/02 05:46:18;;;;;;;37.42;26.95;;;8.80;93.90;;;;;;5911705;40;20060;-68
2021/05/02 05:50:24;;;;;;;30.90;24.02;;;8.90;94.10;;;;;;5906724;40;20049;-69
2021/05/02 05:54:28;;;;;;;33.38;25.17;;;9.00;94.10;;;;;;5905596;40;20140;-69
2021/05/02 05:58:34;;;;;;;33.13;25.55;;;9.10;94.10;;;;;;5908447;40;20049;-69
2021/05/02 06:02:38;;;;;;;29.13;21.70;;;9.30;94.00;;;;;;5900275;39;20056;-68
2021/05/02 06:06:43;;;;;;;28.45;21.38;;;9.40;94.10;;;;;;5905710;40;20061;-68
2021/05/02 06:10:46;;;;;;;32.55;24.70;;;9.50;94.30;;;;;;5897085;40;20053;-68
2021/05/02 06:14:51;;;;;;;32.28;24.35;;;9.60;93.80;;;;;;5907333;40;20064;-69
2021/05/02 06:18:56;;;;;;;24.63;19.92;;;9.60;93.80;;;;;;5907738;39;20061;-69
2021/05/02 06:23:00;;;;;;;29.92;23.35;;;9.60;93.90;;;;;;5908684;40;20044;-68
2021/05/02 06:27:05;;;;;;;24.58;18.27;;;9.60;93.90;;;;;;5908465;39;20175;-69
2021/05/02 06:31:13;;;;;;;25.92;19.02;;;9.60;94.60;;;;;;5907320;39;20053;-69
2021/05/02 06:35:19;;;;;;;23.50;18.55;;;9.70;94.20;;;;;;5903152;39;20045;-69
2021/05/02 06:39:27;;;;;;;24.52;18.95;;;9.80;94.00;;;;;;5910680;40;20085;-68
2021/05/02 06:43:31;;;;;;;25.75;20.48;;;9.90;94.00;;;;;;5907842;39;20044;-69
2021/05/02 06:47:36;;;;;;;25.95;20.88;;;10.00;93.80;;;;;;5904513;39;20682;-68
2021/05/02 06:51:42;;;;;;;24.40;17.73;;;9.10;93.70;;;;;;5907269;39;20072;-68
2021/05/02 06:55:47;;;;;;;26.10;20.48;;;10.00;93.80;;;;;;5907175;39;20176;-68
2021/05/02 06:59:53;;;;;;;24.67;18.05;;;10.00;93.80;;;;;;5911062;39;20053;-68
2021/05/02 07:03:58;;;;;;;24.13;19.35;;;10.00;93.90;;;;;;5905844;40;20064;-69
2021/05/02 07:08:06;;;;;;;23.52;18.05;;;10.00;93.70;;;;;;5905864;39;20363;-68
2021/05/02 07:12:13;;;;;;;22.73;17.45;;;10.10;93.70;;;;;;5905943;39;20056;-68
2021/05/02 07:16:18;;;;;;;22.73;17.77;;;10.20;93.70;;;;;;5909790;40;20113;-68
2021/05/02 07:20:21;;;;;;;27.02;20.70;;;10.20;93.50;;;;;;5907356;40;20522;-68
2021/05/02 07:24:25;;;;;;;27.35;20.73;;;10.30;93.70;;;;;;5900743;39;20037;-68
2021/05/02 07:28:32;;;;;;;25.63;19.58;;;10.30;93.60;;;;;;5914564;40;20041;-68
2021/05/02 07:32:37;;;;;;;26.10;21.55;;;10.50;93.60;;;;;;5899548;40;20057;-68
2021/05/02 07:36:41;;;;;;;26.05;20.42;;;10.50;93.50;;;;;;5903800;39;20065;-68
2021/05/02 07:40:49;;;;;;;25.67;20.27;;;10.50;93.50;;;;;;5902364;40;20045;-68
2021/05/02 07:44:56;;;;;;;25.90;19.88;;;10.70;93.60;;;;;;5908711;40;20341;-68
2021/05/02 07:49:00;;;;;;;23.92;19.02;;;10.80;93.40;;;;;;5908165;39;20065;-68
2021/05/02 07:53:05;;;;;;;24.63;19.40;;;10.90;93.20;;;;;;5907894;39;20394;-68
2021/05/02 07:57:09;;;;;;;19.13;15.30;;;10.90;93.00;;;;;;5909262;40;20138;-70
2021/05/02 08:01:14;;;;;;;18.33;14.18;;;10.90;93.30;;;;;;5905588;39;20053;-70
2021/05/02 08:05:18;;;;;;;19.45;15.57;;;11.10;93.10;;;;;;5908253;39;20061;-70
2021/05/02 08:09:22;;;;;;;22.85;16.33;;;11.10;92.60;;;;;;5909866;40;20433;-71
2021/05/02 08:13:26;;;;;;;19.33;14.98;;;11.10;92.70;;;;;;5904037;39;20096;-71
2021/05/02 08:17:30;;;;;;;22.48;16.15;;;11.00;92.80;;;;;;5907469;40;20085;-70
2021/05/02 08:21:34;;;;;;;20.23;16.27;;;10.90;93.00;;;;;;5904950;40;20052;-70
2021/05/02 08:25:41;;;;;;;20.30;16.08;;;10.80;93.00;;;;;;5906756;39;20220;-70
2021/05/02 08:30:08;;;;;;;20.13;14.93;;;10.70;93.00;;;;;;5910967;40;20072;-70
2021/05/02 08:34:17;;;;;;;20.05;14.65;;;10.70;92.80;;;;;;5903647;39;20091;-70
2021/05/02 08:38:21;;;;;;;20.30;14.68;;;10.80;92.80;;;;;;5888429;39;20056;-70
2021/05/02 08:42:30;;;;;;;18.40;13.73;;;10.90;92.70;;;;;;5898081;40;20422;-71
2021/05/02 08:46:40;;;;;;;17.20;13.30;;;11.20;92.40;;;;;;5900592;40;20064;-70
2021/05/02 08:50:50;;;;;;;19.55;15.40;;;11.40;91.80;;;;;;5904463;40;20060;-70
2021/05/02 08:54:57;;;;;;;20.42;15.68;;;11.30;92.00;;;;;;5903243;40;20056;-70
2021/05/02 08:59:03;;;;;;;20.83;16.38;;;11.30;91.70;;;;;;5890308;39;20166;-70
2021/05/02 09:03:12;;;;;;;21.05;16.02;;;11.40;91.90;;;;;;5897306;39;20068;-69
2021/05/02 09:07:17;;;;;;;21.17;15.55;;;11.50;91.80;;;;;;5902840;40;20069;-69
2021/05/02 09:11:43;;;;;;;20.33;15.55;;;11.70;91.70;;;;;;5903795;39;20170;-70
2021/05/02 09:15:59;;;;;;;19.88;15.48;;;11.70;91.40;;;;;;5908394;40;20059;-70
2021/05/02 09:20:07;;;;;;;20.92;15.45;;;11.60;91.70;;;;;;5905273;40;20057;-69
2021/05/02 09:24:31;;;;;;;20.00;15.38;;;11.60;91.80;;;;;;5906190;39;20064;-69
2021/05/02 09:28:52;;;;;;;18.75;14.02;;;11.60;91.80;;;;;;5904476;39;20041;-69
2021/05/02 09:32:59;;;;;;;21.73;16.43;;;11.60;92.00;;;;;;5903803;40;20436;-70
2021/05/02 09:37:09;;;;;;;22.30;15.38;;;11.60;92.00;;;;;;5916008;40;20080;-70
2021/05/02 09:41:17;;;;;;;20.65;15.35;;;11.60;92.10;;;;;;5905864;40;20376;-70
2021/05/02 09:45:22;;;;;;;18.88;15.02;;;11.60;92.20;;;;;;5898143;40;20336;-69
2021/05/02 09:49:28;;;;;;;19.38;15.15;;;11.60;92.20;;;;;;5902572;39;20052;-69
2021/05/02 09:53:32;;;;;;;17.48;11.88;;;11.60;92.20;;;;;;5908586;40;20430;-69
2021/05/02 09:57:49;;;;;;;16.02;11.73;;;11.60;92.20;;;;;;5907371;40;20073;-69
2021/05/02 10:02:18;;;;;;;17.88;12.95;;;11.50;92.40;;;;;;5903834;40;20545;-70
2021/05/02 10:06:31;;;;;;;16.70;11.02;;;11.40;92.00;;;;;;5901928;39;20387;-69
2021/05/02 10:10:36;;;;;;;14.75;9.75;;;11.10;92.00;;;;;;5904810;39;20068;-69
2021/05/02 10:14:43;;;;;;;16.15;11.43;;;10.80;91.70;;;;;;5907712;39;21178;-69
2021/05/02 10:18:50;;;;;;;15.85;10.50;;;10.60;92.20;;;;;;5909530;39;20134;-70
2021/05/02 10:22:57;;;;;;;15.93;11.50;;;10.60;92.40;;;;;;5907736;39;20424;-70
2021/05/02 10:27:12;;;;;;;19.08;12.77;;;10.50;92.70;;;;;;5905570;39;20073;-69
2021/05/02 10:31:28;;;;;;;21.02;13.50;;;10.50;93.00;;;;;;5904927;39;20593;-70
2021/05/02 10:35:47;;;;;;;19.00;13.85;;;10.50;93.20;;;;;;5907070;40;20294;-69
2021/05/02 10:39:58;;;;;;;19.52;13.40;;;10.40;93.90;;;;;;5905639;40;20068;-69
2021/05/02 10:44:07;;;;;;;15.48;11.25;;;10.40;93.70;;;;;;5911297;39;20056;-69
2021/05/02 10:48:16;;;;;;;17.25;11.55;;;10.40;94.40;;;;;;5905368;39;20056;-70
2021/05/02 10:52:29;;;;;;;15.15;10.20;;;10.60;94.10;;;;;;5903644;40;20060;-69
2021/05/02 10:56:41;;;;;;;14.43;9.50;;;10.80;93.20;;;;;;5901556;39;20143;-69
2021/05/02 11:00:58;;;;;;;14.60;8.67;;;10.80;93.30;;;;;;5907606;39;20056;-69
2021/05/02 11:05:02;;;;;;;12.60;8.57;;;10.70;93.30;;;;;;5906738;39;20065;-70
2021/05/02 11:09:11;;;;;;;12.05;7.80;;;10.60;92.90;;;;;;5908298;39;20081;-69
2021/05/02 11:13:26;;;;;;;10.07;7.03;;;10.40;93.30;;;;;;5904067;39;20158;-69
2021/05/02 11:17:37;;;;;;;13.05;7.97;;;10.20;93.60;;;;;;5899223;40;20089;-70
2021/05/02 11:21:48;;;;;;;13.00;8.18;;;10.10;93.70;;;;;;5901127;40;20444;-70
2021/05/02 11:25:59;;;;;;;12.50;7.43;;;10.10;93.50;;;;;;5904892;39;20069;-70
2021/05/02 11:30:09;;;;;;;12.10;8.00;;;10.00;92.90;;;;;;5907083;40;20053;-70
2021/05/02 11:34:13;;;;;;;10.57;7.28;;;9.50;93.20;;;;;;5895832;40;20061;-70
2021/05/02 11:38:33;;;;;;;11.05;7.38;;;9.50;93.40;;;;;;5900780;39;20052;-70
2021/05/02 11:42:50;;;;;;;11.05;7.80;;;9.50;93.50;;;;;;5903461;39;20044;-70
2021/05/02 11:46:55;;;;;;;15.73;9.63;;;9.50;93.50;;;;;;5904746;40;20424;-71
2021/05/02 11:51:02;;;;;;;12.18;6.55;;;9.50;94.20;;;;;;5903331;39;20052;-71
2021/05/02 11:55:25;;;;;;;17.60;10.45;;;9.40;94.60;;;;;;5902885;40;20064;-71
2021/05/02 11:59:29;;;;;;;13.95;8.55;;;9.00;95.40;;;;;;5903141;39;20065;-70
2021/05/02 12:03:37;;;;;;;19.63;11.73;;;8.80;95.10;;;;;;5905536;40;20604;-71
2021/05/02 12:07:41;;;;;;;15.07;8.88;;;8.70;95.30;;;;;;5904291;39;20084;-71
2021/05/02 12:12:01;;;;;;;18.25;11.80;;;8.60;95.50;;;;;;5908004;40;20344;-70
2021/05/02 12:16:17;;;;;;;13.20;8.02;;;8.40;96.30;;;;;;5905309;39;20261;-70
2021/05/02 12:20:28;;;;;;;12.02;8.20;;;8.60;96.40;;;;;;5905442;39;20328;-69
2021/05/02 12:24:33;;;;;;;11.10;6.97;;;8.70;97.00;;;;;;5910996;39;20049;-69
2021/05/02 12:28:40;;;;;;;13.63;7.90;;;8.90;97.10;;;;;;5905232;39;20471;-70
2021/05/02 12:32:47;;;;;;;13.43;7.85;;;9.00;97.50;;;;;;5907664;39;20060;-70
2021/05/02 12:36:53;;;;;;;12.88;7.50;;;9.10;97.70;;;;;;5906443;39;20057;-69
2021/05/02 12:40:58;;;;;;;10.30;7.30;;;9.10;97.20;;;;;;5904210;39;20636;-70
2021/05/02 12:45:09;;;;;;;9.05;4.95;;;9.30;96.90;;;;;;5900690;39;20451;-69
2021/05/02 12:49:23;;;;;;;8.57;5.47;;;9.40;96.50;;;;;;5897414;39;20067;-69
2021/05/02 12:53:39;;;;;;;8.00;5.80;;;9.40;96.10;;;;;;5904697;39;20057;-69
2021/05/02 12:57:53;;;;;;;7.20;4.15;;;9.40;96.00;;;;;;5905701;39;20344;-69
2021/05/02 13:02:13;;;;;;;6.72;4.50;;;9.40;96.20;;;;;;5906279;39;20876;-69
2021/05/02 13:06:17;;;;;;;7.75;5.78;;;9.30;95.70;;;;;;5913080;40;20063;-70
2021/05/02 13:10:24;;;;;;;7.47;5.05;;;9.30;95.30;;;;;;5904248;39;20492;-69
2021/05/02 13:14:30;;;;;;;7.28;5.68;;;9.30;95.10;;;;;;5907765;39;20580;-69
2021/05/02 13:18:39;;;;;;;7.85;4.93;;;9.30;95.20;;;;;;5895558;40;20041;-69
2021/05/02 13:22:45;;;;;;;6.18;4.70;;;9.20;95.00;;;;;;5901035;39;20057;-69
2021/05/02 13:26:50;;;;;;;7.72;5.50;;;9.20;94.90;;;;;;5909088;40;20356;-70
2021/05/02 13:30:54;;;;;;;6.30;4.20;;;9.30;95.40;;;;;;5907247;40;20452;-70
2021/05/02 13:34:58;;;;;;;5.32;3.88;;;9.40;94.80;;;;;;5907083;39;20044;-69
2021/05/02 13:39:03;;;;;;;5.43;3.77;;;9.50;94.90;;;;;;5903123;39;20040;-70
2021/05/02 13:43:07;;;;;;;6.05;4.35;;;9.60;93.90;;;;;;5899430;40;20057;-69
2021/05/02 13:47:16;;;;;;;5.40;3.65;;;9.60;94.00;;;;;;5905162;39;20134;-69
2021/05/02 13:51:23;;;;;;;6.93;4.80;;;9.70;94.00;;;;;;5905577;40;20045;-69
2021/05/02 13:55:29;;;;;;;5.63;3.97;;;9.60;93.60;;;;;;5901735;39;20455;-69
2021/05/02 13:59:34;;;;;;;6.10;4.38;;;9.60;93.50;;;;;;5905349;39;20190;-69
2021/05/02 14:03:38;;;;;;;5.90;4.45;;;9.60;93.70;;;;;;5899023;40;20931;-69
2021/05/02 14:07:42;;;;;;;7.50;4.93;;;9.50;93.40;;;;;;5903408;39;20083;-69
2021/05/02 14:11:46;;;;;;;7.20;4.75;;;9.50;93.50;;;;;;5908963;39;20045;-69
2021/05/02 14:15:53;;;;;;;8.15;5.72;;;9.40;93.50;;;;;;5903871;40;20057;-70
2021/05/02 14:19:57;;;;;;;6.07;3.78;;;9.40;93.50;;;;;;5906806;39;20440;-71
2021/05/02 14:24:01;;;;;;;4.85;3.08;;;9.50;93.60;;;;;;5904270;39;20123;-71
2021/05/02 14:28:08;;;;;;;4.15;2.60;;;9.30;94.00;;;;;;5902163;40;20452;-71
2021/05/02 14:32:15;;;;;;;4.63;2.50;;;9.20;93.80;;;;;;5907038;40;20068;-71
2021/05/02 14:36:19;;;;;;;5.50;3.03;;;9.20;93.90;;;;;;5901445;39;20408;-71
2021/05/02 14:40:24;;;;;;;4.22;2.70;;;9.20;94.00;;;;;;5901138;39;20109;-71
2021/05/02 14:44:28;;;;;;;4.05;2.70;;;9.40;94.00;;;;;;5905469;39;20060;-70
2021/05/02 14:48:35;;;;;;;4.85;3.10;;;9.20;94.00;;;;;;5908212;39;20471;-71
2021/05/02 14:52:44;;;;;;;4.47;3.33;;;9.30;94.00;;;;;;5896552;39;20073;-70
2021/05/02 14:56:48;;;;;;;5.20;3.47;;;9.30;94.10;;;;;;5900089;39;20053;-71
2021/05/02 15:00:56;;;;;;;5.78;3.50;;;9.30;93.80;;;;;;5902591;40;20052;-71
2021/05/02 15:05:04;;;;;;;5.88;4.32;;;9.30;94.00;;;;;;5900814;39;20048;-70
2021/05/02 15:09:13;;;;;;;4.47;2.75;;;9.20;94.10;;;;;;5904863;39;20052;-71
2021/05/02 15:13:19;;;;;;;4.05;2.72;;;9.30;94.00;;;;;;5904952;39;20057;-71
2021/05/02 15:17:24;;;;;;;4.57;2.90;;;9.20;94.10;;;;;;5907479;39;20137;-70
2021/05/02 15:21:28;;;;;;;5.10;3.50;;;9.30;94.10;;;;;;5901963;39;20061;-70
2021/05/02 15:25:32;;;;;;;5.60;3.72;;;9.40;94.20;;;;;;5903667;40;20525;-70
2021/05/02 15:29:37;;;;;;;4.53;3.22;;;9.50;94.00;;;;;;5901883;40;20402;-70
2021/05/02 15:33:43;;;;;;;4.75;3.13;;;9.60;93.80;;;;;;5901445;39;20427;-70
2021/05/02 15:37:50;;;;;;;6.13;3.70;;;9.60;93.60;;;;;;5898459;39;20391;-70
2021/05/02 15:41:55;;;;;;;4.82;3.67;;;9.60;93.80;;;;;;5907856;39;20136;-70
2021/05/02 15:45:58;;;;;;;5.18;3.58;;;9.60;93.90;;;;;;5906896;39;20061;-70
2021/05/02 15:50:05;;;;;;;4.97;3.50;;;9.40;94.00;;;;;;5906409;40;20075;-70
2021/05/02 15:54:12;;;;;;;5.97;3.42;;;8.70;93.80;;;;;;5906247;39;20045;-70
2021/05/02 15:58:16;;;;;;;4.82;3.60;;;9.70;93.80;;;;;;5903987;39;20056;-70
2021/05/02 16:02:18;;;;;;;5.60;3.60;;;9.60;93.80;;;;;;5896832;40;20153;-70
2021/05/02 16:06:24;;;;;;;6.80;4.25;;;9.70;93.80;;;;;;5903785;40;20415;-70
2021/05/02 16:10:31;;;;;;;7.07;5.22;;;9.70;93.90;;;;;;5907848;39;20041;-70
2021/05/02 16:14:36;;;;;;;5.93;3.95;;;9.60;94.00;;;;;;5903177;39;20089;-71
2021/05/02 16:18:42;;;;;;;7.53;5.10;;;9.60;94.20;;;;;;5901823;40;20047;-70
2021/05/02 16:22:47;;;;;;;7.75;4.55;;;9.60;94.00;;;;;;5906109;39;20320;-70
2021/05/02 16:26:51;;;;;;;6.40;4.97;;;9.50;94.10;;;;;;5906077;40;20055;-70
2021/05/02 16:30:58;;;;;;;8.55;5.30;;;9.50;94.00;;;;;;5899475;39;20850;-70
2021/05/02 16:35:06;;;;;;;6.82;4.10;;;9.50;94.20;;;;;;5902731;40;20055;-70
2021/05/02 16:39:11;;;;;;;4.78;3.72;;;9.40;94.20;;;;;;5903034;39;20428;-70
2021/05/02 16:43:16;;;;;;;7.90;5.18;;;9.30;94.00;;;;;;5907080;39;20052;-70
2021/05/02 16:47:20;;;;;;;4.97;3.55;;;9.20;94.00;;;;;;5906195;40;20440;-70
2021/05/02 16:51:24;;;;;;;5.65;4.05;;;9.20;93.90;;;;;;5898853;39;20435;-70
2021/05/02 16:55:33;;;;;;;7.05;4.30;;;9.10;94.00;;;;;;5905654;39;20053;-70
2021/05/02 16:59:44;;;;;;;6.05;4.32;;;9.00;94.20;;;;;;5914193;39;20076;-70
2021/05/02 17:03:48;;;;;;;6.63;3.72;;;9.00;94.10;;;;;;5902871;39;20061;-70
2021/05/02 17:07:52;;;;;;;7.13;3.10;;;8.90;93.90;;;;;;5909539;39;20343;-70
2021/05/02 17:11:57;;;;;;;5.45;3.45;;;8.90;93.90;;;;;;5903978;40;20053;-70
2021/05/02 17:16:08;;;;;;;4.47;2.95;;;8.80;94.10;;;;;;5906091;39;20102;-69
2021/05/02 17:20:13;;;;;;;4.93;3.20;;;8.80;93.80;;;;;;5907750;39;20305;-71
2021/05/02 17:24:17;;;;;;;5.15;2.92;;;8.80;93.90;;;;;;5906730;40;20060;-70
2021/05/02 17:28:21;;;;;;;4.78;2.67;;;8.70;93.90;;;;;;5904467;40;20230;-70
2021/05/02 17:32:25;;;;;;;5.60;2.53;;;8.60;94.10;;;;;;5901383;40;20662;-70
2021/05/02 17:36:32;;;;;;;4.88;2.20;;;8.60;94.10;;;;;;5908231;39;20084;-69
2021/05/02 17:40:37;;;;;;;5.35;2.55;;;8.50;94.00;;;;;;5908825;39;20061;-69
2021/05/02 17:44:41;;;;;;;5.80;2.50;;;8.50;93.90;;;;;;5907944;40;20100;-70
2021/05/02 17:48:46;;;;;;;4.85;3.33;;;8.50;93.90;;;;;;5902988;39;20060;-70
2021/05/02 17:52:50;;;;;;;4.65;2.53;;;8.40;94.20;;;;;;5907953;40;20089;-70
2021/05/02 17:56:54;;;;;;;6.32;2.75;;;8.40;94.00;;;;;;5907182;39;20138;-70
2021/05/02 18:00:58;;;;;;;6.78;3.28;;;8.40;94.00;;;;;;5903325;39;20052;-70
2021/05/02 18:05:09;;;;;;;6.85;3.60;;;8.40;94.10;;;;;;5904117;40;20065;-70
2021/05/02 18:09:16;;;;;;;8.38;3.65;;;8.30;94.10;;;;;;5906034;39;20041;-70
2021/05/02 18:13:23;;;;;;;8.65;3.65;;;8.30;94.00;;;;;;5903422;39;20393;-70
2021/05/02 18:17:27;;;;;;;9.05;3.92;;;8.20;94.30;;;;;;5905786;39;20668;-70
2021/05/02 18:21:34;;;;;;;7.25;3.83;;;8.10;94.50;;;;;;5898525;39;20387;-70
2021/05/02 18:25:39;;;;;;;6.28;3.72;;;8.10;95.00;;;;;;5908237;40;20416;-69
2021/05/02 18:29:46;;;;;;;7.50;4.35;;;8.10;94.50;;;;;;5904517;40;20040;-70
2021/05/02 18:33:52;;;;;;;7.70;4.85;;;8.10;94.30;;;;;;5895811;39;20077;-70
2021/05/02 18:37:59;;;;;;;8.68;4.82;;;8.10;94.70;;;;;;5900282;39;20100;-70
2021/05/02 18:42:06;;;;;;;7.40;4.93;;;8.00;94.60;;;;;;5889147;39;20049;-70
2021/05/02 18:46:13;;;;;;;10.77;6.53;;;8.00;94.80;;;;;;5908056;39;20049;-72
2021/05/02 18:50:18;;;;;;;10.00;5.82;;;7.90;94.60;;;;;;5909035;39;20130;-72
2021/05/02 18:54:23;;;;;;;9.52;6.07;;;8.00;94.60;;;;;;5900670;39;20161;-73
2021/05/02 18:58:27;;;;;;;10.95;6.55;;;7.90;94.70;;;;;;5904315;40;20040;-72
2021/05/02 19:02:32;;;;;;;10.00;6.28;;;7.90;94.60;;;;;;5901508;40;20627;-72
2021/05/02 19:06:39;;;;;;;12.13;6.38;;;7.90;94.80;;;;;;5902691;40;20049;-72
2021/05/02 19:10:43;;;;;;;12.93;6.57;;;7.90;94.60;;;;;;5903930;40;20447;-72
2021/05/02 19:14:47;;;;;;;12.77;6.07;;;7.80;94.60;;;;;;5902220;39;20229;-73
2021/05/02 19:18:54;;;;;;;10.65;6.78;;;7.80;94.70;;;;;;5907562;39;20328;-73
2021/05/02 19:23:01;;;;;;;11.95;6.70;;;7.80;94.70;;;;;;5915959;40;20325;-72
2021/05/02 19:27:06;;;;;;;10.95;5.60;;;7.70;94.80;;;;;;5902133;39;20068;-72
2021/05/02 19:31:11;;;;;;;14.57;6.80;;;7.70;95.00;;;;;;5909028;39;20420;-72
2021/05/02 19:35:20;;;;;;;11.57;6.53;;;7.70;94.90;;;;;;5907665;40;20097;-72
2021/05/02 19:39:24;;;;;;;13.88;4.78;;;7.70;95.00;;;;;;5905855;39;20665;-73
2021/05/02 19:43:28;;;;;;;13.02;5.05;;;7.60;95.00;;;;;;5911683;40;20114;-73
2021/05/02 19:47:33;;;;;;;8.20;4.95;;;7.60;95.00;;;;;;5910636;39;20089;-72
2021/05/02 19:51:35;;;;;;;;;;;7.60;95.20;;;;;;5909997;39;20121;-73
2021/05/02 19:55:39;;;;;;;16.58;5.30;;;7.60;94.70;;;;;;5907799;39;20233;-74
2021/05/02 19:59:47;;;;;;;9.48;4.97;;;7.70;94.70;;;;;;5901904;39;20502;-72
2021/05/02 20:03:51;;;;;;;10.93;5.28;;;7.70;94.70;;;;;;5898907;40;20815;-72
2021/05/02 20:07:58;;;;;;;11.40;4.55;;;7.70;94.80;;;;;;5902700;39;20052;-72
2021/05/02 20:12:04;;;;;;;12.30;4.75;;;7.70;94.80;;;;;;5905530;39;20138;-72
2021/05/02 20:16:11;;;;;;;13.35;4.47;;;7.80;94.90;;;;;;5911176;39;20301;-72
2021/05/02 20:20:15;;;;;;;15.10;4.28;;;7.80;94.80;;;;;;5910033;40;20064;-72
2021/05/02 20:24:20;;;;;;;12.95;4.70;;;7.70;95.00;;;;;;5908344;39;20695;-73
2021/05/02 20:28:27;;;;;;;12.55;4.80;;;7.80;94.90;;;;;;5898491;39;20434;-76
2021/05/02 20:32:37;;;;;;;16.77;4.68;;;7.80;94.90;;;;;;5906199;39;20041;-74
2021/05/02 20:36:42;;;;;;;8.80;3.80;;;7.80;95.00;;;;;;5910176;39;20045;-77
2021/05/02 20:40:46;;;;;;;12.85;4.18;;;7.70;94.90;;;;;;5913827;39;20056;-74
2021/05/02 20:44:55;;;;;;;12.43;4.45;;;7.70;95.10;;;;;;5899498;40;20188;-74
2021/05/02 20:49:03;;;;;;;8.60;3.67;;;7.70;94.80;;;;;;5902699;39;20053;-75
2021/05/02 20:53:08;;;;;;;7.72;3.95;;;7.80;95.00;;;;;;5910027;39;20057;-75
2021/05/02 20:57:15;;;;;;;11.10;3.58;;;7.80;94.90;;;;;;5915931;39;20582;-77
2021/05/02 21:01:19;;;;;;;12.95;3.47;;;7.80;94.90;;;;;;5912556;39;20089;-75
2021/05/02 21:05:23;;;;;;;10.20;3.85;;;7.80;94.80;;;;;;5901677;40;20053;-74
2021/05/02 21:09:29;;;;;;;9.80;2.97;;;7.60;94.70;;;;;;5894543;40;20057;-72
2021/05/02 21:13:34;;;;;;;8.10;3.08;;;7.70;94.80;;;;;;5907905;39;20055;-73
2021/05/02 21:17:48;;;;;;;12.95;2.97;;;7.70;95.20;;;;;;5904370;39;20052;-73
2021/05/02 21:21:54;;;;;;;9.88;3.17;;;7.70;94.80;;;;;;5899361;40;20056;-72